Time;durP1;ratioP1;P1;durP2;ratioP2;P2;SDS_P1;SDS_P2;PMS_P1;PMS_P2;Temp;Humidity;BMP_temperature;BMP_pressure;BME280_temperature;BME280_humidity;BME280_pressure;Samples;Min_cycle;Max_cycle;Signal;HPM_P1;HPM_P2
2023/10/14 00:01:14;;;;;;;7.07;0.87;;;13.90;90.20;;;;;;5087744;28;20437;-71
2023/10/14 00:03:50;;;;;;;7.53;0.63;;;13.90;90.00;;;;;;5085316;28;20402;-71
2023/10/14 00:06:17;;;;;;;8.60;0.60;;;13.90;89.80;;;;;;5088641;28;20442;-71
2023/10/14 00:11:16;;;;;;;5.67;0.90;;;13.80;89.40;;;;;;5086056;28;20410;-71
2023/10/14 00:13:49;;;;;;;8.23;1.02;;;13.80;89.30;;;;;;5079184;28;20851;-71
2023/10/14 00:18:55;;;;;;;7.80;1.38;;;13.70;88.50;;;;;;5087784;28;20780;-71
2023/10/14 00:21:23;;;;;;;6.45;0.73;;;13.70;87.50;;;;;;5087151;28;20421;-71
2023/10/14 00:23:57;;;;;;;7.60;0.98;;;13.60;86.50;;;;;;5092204;28;20406;-71
2023/10/14 00:26:24;;;;;;;6.32;0.90;;;13.50;85.80;;;;;;5083525;28;20872;-71
2023/10/14 00:28:54;;;;;;;5.60;0.88;;;13.50;85.70;;;;;;5086384;28;20402;-71
2023/10/14 00:31:21;;;;;;;8.88;1.20;;;13.40;85.90;;;;;;5087681;28;20467;-71
2023/10/14 00:33:47;;;;;;;8.13;0.88;;;13.40;85.50;;;;;;5086952;28;20968;-71
2023/10/14 00:36:14;;;;;;;7.00;0.90;;;13.40;85.40;;;;;;5087493;28;20496;-71
2023/10/14 00:38:46;;;;;;;5.72;1.20;;;13.40;85.50;;;;;;5093296;28;20846;-71
2023/10/14 00:41:12;;;;;;;9.20;1.33;;;13.40;85.00;;;;;;5087848;28;20933;-71
2023/10/14 00:43:41;;;;;;;7.55;1.15;;;13.30;84.70;;;;;;5093119;28;20418;-71
2023/10/14 00:46:14;;;;;;;7.50;1.13;;;13.30;83.90;;;;;;5087244;28;20429;-71
2023/10/14 00:48:46;;;;;;;10.27;1.40;;;13.20;83.30;;;;;;5087389;28;20410;-71
2023/10/14 00:51:16;;;;;;;8.60;1.30;;;13.20;82.50;;;;;;5087301;28;20406;-71
2023/10/14 00:53:51;;;;;;;6.65;1.02;;;13.10;82.10;;;;;;5087617;28;20499;-71
2023/10/14 00:56:27;;;;;;;11.37;1.50;;;13.10;81.60;;;;;;5087456;28;20494;-71
2023/10/14 00:59:02;;;;;;;10.27;1.52;;;13.00;80.80;;;;;;5119208;28;20418;-71
2023/10/14 01:01:28;;;;;;;9.70;1.65;;;13.00;79.50;;;;;;5071775;28;20425;-71
2023/10/14 01:04:05;;;;;;;9.73;1.90;;;12.90;78.80;;;;;;5087342;28;20420;-71
2023/10/14 01:06:53;;;;;;;11.63;1.85;;;12.90;78.30;;;;;;5087366;28;20433;-71
2023/10/14 01:09:19;;;;;;;13.02;1.58;;;12.80;77.10;;;;;;5095132;28;20884;-71
2023/10/14 01:11:45;;;;;;;9.53;1.37;;;12.70;76.50;;;;;;5087282;28;20405;-71
2023/10/14 01:14:15;;;;;;;11.80;2.13;;;12.70;76.70;;;;;;5099344;28;20918;-71
2023/10/14 01:16:41;;;;;;;10.07;1.30;;;12.60;75.60;;;;;;5123986;27;20421;-71
2023/10/14 01:19:11;;;;;;;10.45;1.50;;;12.60;74.50;;;;;;5095568;28;20421;-71
2023/10/14 01:21:38;;;;;;;12.45;1.90;;;12.50;73.50;;;;;;5090525;28;20505;-71
2023/10/14 01:24:15;;;;;;;8.98;1.40;;;12.40;72.90;;;;;;5083999;28;20479;-71
2023/10/14 01:27:00;;;;;;;13.13;1.70;;;12.40;71.00;;;;;;5087395;28;20506;-71
2023/10/14 01:29:30;;;;;;;8.40;1.27;;;12.40;69.30;;;;;;5083340;28;20415;-71
2023/10/14 01:33:12;;;;;;;9.18;1.60;;;12.30;67.70;;;;;;5085890;28;20960;-71
2023/10/14 01:35:26;;;;;;;12.38;1.77;;;12.20;67.40;;;;;;5087953;28;20824;-71
2023/10/14 01:37:54;;;;;;;12.15;1.65;;;12.20;67.60;;;;;;5090733;28;20410;-71
2023/10/14 01:42:47;;;;;;;9.17;1.40;;;12.10;68.30;;;;;;5091180;28;20445;-71
2023/10/14 01:45:14;;;;;;;10.73;1.98;;;12.10;69.00;;;;;;5090374;28;20907;-71
2023/10/14 01:47:47;;;;;;;12.07;1.70;;;12.00;69.40;;;;;;5090272;28;20462;-71
2023/10/14 01:50:14;;;;;;;10.30;1.73;;;12.00;69.90;;;;;;5072067;28;20470;-71
2023/10/14 01:52:40;;;;;;;13.25;1.70;;;11.90;70.50;;;;;;5096898;28;20793;-71
2023/10/14 01:55:06;;;;;;;10.73;1.40;;;11.90;70.40;;;;;;5090646;28;20447;-71
2023/10/14 01:57:31;;;;;;;9.75;1.48;;;11.80;71.40;;;;;;5082014;28;20445;-71
2023/10/14 01:59:57;;;;;;;11.05;1.88;;;11.80;71.20;;;;;;5090426;28;20745;-71
2023/10/14 02:02:22;;;;;;;13.93;2.13;;;11.80;71.70;;;;;;5102086;28;20425;-71
2023/10/14 02:04:57;;;;;;;10.02;1.63;;;11.70;72.10;;;;;;5090318;28;20402;-71
2023/10/14 02:07:23;;;;;;;12.88;1.85;;;11.70;73.00;;;;;;5088717;28;20437;-71
2023/10/14 02:09:48;;;;;;;11.43;1.85;;;11.70;73.50;;;;;;5089876;28;20911;-71
2023/10/14 02:12:18;;;;;;;9.97;1.63;;;11.70;73.60;;;;;;5090097;28;20406;-71
2023/10/14 02:14:44;;;;;;;10.77;1.77;;;11.70;74.10;;;;;;5088466;28;20418;-71
2023/10/14 02:17:12;;;;;;;10.68;1.70;;;11.60;74.10;;;;;;5090553;28;20402;-71
2023/10/14 02:19:38;;;;;;;11.70;1.70;;;11.70;74.70;;;;;;5080216;28;20434;-72
2023/10/14 02:22:10;;;;;;;9.70;1.58;;;11.70;75.10;;;;;;5071805;28;20409;-71
2023/10/14 02:24:36;;;;;;;10.82;1.63;;;11.70;75.40;;;;;;5085710;28;20410;-71
2023/10/14 02:27:12;;;;;;;11.43;1.70;;;11.70;75.40;;;;;;5089176;28;20429;-71
2023/10/14 02:29:42;;;;;;;11.73;1.70;;;11.70;74.20;;;;;;5086302;28;20777;-71
2023/10/14 02:32:11;;;;;;;7.45;1.50;;;11.70;73.90;;;;;;5072405;28;20451;-71
2023/10/14 02:34:38;;;;;;;10.35;1.40;;;11.70;73.30;;;;;;5088092;28;20489;-71
2023/10/14 02:37:06;;;;;;;17.70;1.70;;;11.60;72.10;;;;;;5089556;28;20421;-71
2023/10/14 02:39:32;;;;;;;9.98;1.98;;;11.60;71.60;;;;;;5089375;28;20749;-71
2023/10/14 02:44:43;;;;;;;10.23;1.70;;;11.60;70.20;;;;;;5097281;28;20948;-71
2023/10/14 02:47:09;;;;;;;10.73;1.80;;;11.50;70.00;;;;;;5089082;28;20494;-71
2023/10/14 02:49:40;;;;;;;10.00;1.33;;;11.50;70.20;;;;;;5090151;28;20983;-71
2023/10/14 02:52:10;;;;;;;9.95;1.40;;;11.50;69.70;;;;;;5093846;28;20437;-71
2023/10/14 02:54:40;;;;;;;11.20;1.70;;;11.40;69.30;;;;;;5078137;28;20439;-71
2023/10/14 02:57:23;;;;;;;10.35;1.50;;;11.40;69.30;;;;;;5089539;28;20412;-71
2023/10/14 02:59:50;;;;;;;11.88;1.70;;;11.30;69.10;;;;;;5088807;28;20421;-72
2023/10/14 03:07:28;;;;;;;12.90;1.90;;;11.20;68.90;;;;;;5089200;28;20429;-72
2023/10/14 03:12:42;;;;;;;10.98;1.58;;;11.20;69.60;;;;;;5080035;28;20410;-71
2023/10/14 03:15:19;;;;;;;11.37;1.60;;;11.10;69.70;;;;;;5089022;28;20394;-71
2023/10/14 03:18:04;;;;;;;8.68;1.40;;;11.10;69.80;;;;;;5091743;28;20414;-72
2023/10/14 03:20:37;;;;;;;8.57;1.48;;;11.00;69.90;;;;;;5086966;28;20873;-72
2023/10/14 03:23:19;;;;;;;7.18;1.15;;;11.00;70.10;;;;;;5088608;28;20752;-71
2023/10/14 03:25:53;;;;;;;9.05;1.35;;;10.90;70.10;;;;;;5080784;28;20418;-71
2023/10/14 03:28:21;;;;;;;10.38;1.40;;;10.90;69.80;;;;;;5088123;28;21275;-71
2023/10/14 03:30:48;;;;;;;9.52;1.38;;;10.90;69.50;;;;;;5079127;28;20422;-72
2023/10/14 03:33:19;;;;;;;11.50;1.90;;;10.80;69.30;;;;;;5088301;28;20463;-71
2023/10/14 03:35:56;;;;;;;10.13;1.45;;;10.80;69.40;;;;;;5088601;28;20481;-72
2023/10/14 03:38:33;;;;;;;8.55;1.42;;;10.80;69.20;;;;;;5076347;28;20403;-71
2023/10/14 03:41:10;;;;;;;11.73;1.75;;;10.80;69.20;;;;;;5088420;28;21612;-72
2023/10/14 03:43:47;;;;;;;11.05;1.67;;;10.80;69.00;;;;;;5087286;28;20409;-71
2023/10/14 03:46:23;;;;;;;10.07;1.50;;;10.70;68.90;;;;;;5119607;27;20493;-72
2023/10/14 03:48:54;;;;;;;9.35;1.67;;;10.70;69.20;;;;;;5088167;28;20776;-71
2023/10/14 03:51:30;;;;;;;12.77;1.35;;;10.70;69.10;;;;;;5095232;28;20497;-71
2023/10/14 03:54:08;;;;;;;12.35;1.75;;;10.70;69.30;;;;;;5103855;28;20406;-72
2023/10/14 03:56:35;;;;;;;9.30;1.40;;;10.70;69.40;;;;;;5088569;28;20477;-72
2023/10/14 03:59:01;;;;;;;11.45;1.42;;;10.70;69.40;;;;;;5087959;28;20468;-71
2023/10/14 04:04:14;;;;;;;10.15;1.45;;;10.60;69.10;;;;;;5086337;28;20448;-72
2023/10/14 04:06:41;;;;;;;7.68;1.17;;;10.60;68.80;;;;;;5087936;28;20521;-72
2023/10/14 04:09:10;;;;;;;9.07;1.40;;;10.60;68.80;;;;;;5088021;28;20920;-71
2023/10/14 04:11:35;;;;;;;11.07;1.73;;;10.60;68.20;;;;;;5089153;28;20417;-72
2023/10/14 04:14:02;;;;;;;11.95;1.65;;;10.60;68.20;;;;;;5086462;28;20405;-72
2023/10/14 04:19:22;;;;;;;13.00;1.30;;;10.60;68.10;;;;;;5087404;28;20413;-71
2023/10/14 04:21:59;;;;;;;11.77;1.53;;;10.60;67.90;;;;;;5088651;28;20424;-72
2023/10/14 04:24:28;;;;;;;10.88;1.58;;;10.70;67.50;;;;;;5090244;28;20414;-71
2023/10/14 04:27:16;;;;;;;10.85;1.50;;;10.60;66.50;;;;;;5087682;28;20426;-72
2023/10/14 04:29:50;;;;;;;9.35;1.48;;;10.60;66.40;;;;;;5087336;28;21032;-71
2023/10/14 04:32:24;;;;;;;9.20;1.02;;;10.60;66.00;;;;;;5090986;28;20490;-72
2023/10/14 04:34:54;;;;;;;11.52;1.60;;;10.60;65.30;;;;;;5086925;28;20412;-72
2023/10/14 04:37:20;;;;;;;11.70;1.57;;;10.60;64.10;;;;;;5087902;28;20444;-72
2023/10/14 04:39:47;;;;;;;9.23;1.20;;;10.70;63.80;;;;;;5087767;28;20402;-72
2023/10/14 04:44:59;;;;;;;11.48;1.42;;;10.60;63.00;;;;;;5088486;28;20432;-72
2023/10/14 04:47:37;;;;;;;11.13;1.48;;;10.60;61.60;;;;;;5084027;28;20792;-70
2023/10/14 04:50:14;;;;;;;12.80;2.00;;;10.60;61.40;;;;;;5095856;28;20428;-70
2023/10/14 04:52:48;;;;;;;14.65;2.10;;;10.60;61.30;;;;;;5091533;28;20444;-71
2023/10/14 04:55:32;;;;;;;10.65;1.35;;;10.60;61.10;;;;;;5089655;28;20444;-70
2023/10/14 05:00:42;;;;;;;12.13;2.13;;;10.50;61.50;;;;;;5090135;28;20405;-71
2023/10/14 05:03:14;;;;;;;9.93;1.70;;;10.60;61.60;;;;;;5094106;28;20398;-72
2023/10/14 05:05:46;;;;;;;11.47;1.67;;;10.60;61.60;;;;;;5098586;28;20446;-71
2023/10/14 05:08:21;;;;;;;10.05;1.33;;;10.60;60.50;;;;;;5091449;28;20405;-71
2023/10/14 05:10:50;;;;;;;9.80;1.67;;;10.60;60.10;;;;;;5088351;28;20471;-71
2023/10/14 05:13:19;;;;;;;12.90;1.80;;;10.70;59.80;;;;;;5091279;28;20406;-70
2023/10/14 05:15:53;;;;;;;16.23;2.42;;;10.60;59.40;;;;;;5091239;28;20398;-70
2023/10/14 05:18:27;;;;;;;11.30;1.63;;;10.70;59.50;;;;;;5090102;28;20752;-71
2023/10/14 05:23:24;;;;;;;10.32;1.40;;;10.70;58.70;;;;;;5092569;27;20426;-72
2023/10/14 05:25:56;;;;;;;10.32;1.75;;;10.70;58.80;;;;;;5094975;28;20414;-71
2023/10/14 05:28:26;;;;;;;11.63;1.63;;;10.70;58.70;;;;;;5090426;28;20394;-72
2023/10/14 05:30:55;;;;;;;11.18;1.60;;;10.60;58.80;;;;;;5094909;28;20404;-73
2023/10/14 05:33:21;;;;;;;11.52;1.73;;;10.70;59.00;;;;;;5089416;28;20398;-72
2023/10/14 05:35:48;;;;;;;15.47;2.53;;;10.70;58.50;;;;;;5090852;28;20409;-72
2023/10/14 05:38:17;;;;;;;13.50;1.70;;;10.60;58.50;;;;;;5090617;28;20410;-72
2023/10/14 05:40:43;;;;;;;14.20;1.87;;;10.60;58.40;;;;;;5079661;28;20435;-72
2023/10/14 05:43:09;;;;;;;12.35;1.88;;;10.60;58.70;;;;;;5090373;28;20440;-72
2023/10/14 05:45:38;;;;;;;12.23;1.88;;;10.60;59.30;;;;;;5089313;28;20945;-72
2023/10/14 05:48:04;;;;;;;12.73;2.17;;;10.60;59.90;;;;;;5088954;28;20449;-72
2023/10/14 05:50:32;;;;;;;12.52;1.75;;;10.60;61.00;;;;;;5090040;28;20994;-71
2023/10/14 05:52:59;;;;;;;13.13;1.75;;;10.60;60.30;;;;;;5090215;28;20406;-72
2023/10/14 05:55:26;;;;;;;13.02;2.00;;;10.60;60.30;;;;;;5089943;28;20398;-71
2023/10/14 05:57:51;;;;;;;10.15;1.90;;;10.60;60.50;;;;;;5090110;28;20422;-72
2023/10/14 06:00:23;;;;;;;9.25;1.52;;;10.50;60.90;;;;;;5089951;28;20434;-72
2023/10/14 06:02:56;;;;;;;12.25;1.58;;;10.50;61.00;;;;;;5090328;28;20398;-72
2023/10/14 06:05:24;;;;;;;10.38;1.65;;;10.40;60.90;;;;;;5088660;28;20764;-71
2023/10/14 06:07:50;;;;;;;9.95;1.60;;;10.40;60.50;;;;;;5090059;28;20421;-72
2023/10/14 06:10:20;;;;;;;13.57;1.73;;;10.40;60.40;;;;;;5090822;28;20425;-71
2023/10/14 06:12:48;;;;;;;11.20;2.05;;;10.40;60.10;;;;;;5082915;28;20486;-72
2023/10/14 06:15:17;;;;;;;10.93;1.60;;;10.40;59.80;;;;;;5089152;28;20410;-72
2023/10/14 06:17:47;;;;;;;11.48;1.90;;;10.40;59.20;;;;;;5089948;28;20444;-72
2023/10/14 06:20:20;;;;;;;12.13;1.73;;;10.40;58.80;;;;;;5089758;28;20441;-72
2023/10/14 06:22:45;;;;;;;11.82;1.85;;;10.30;58.40;;;;;;5089942;28;20455;-72
2023/10/14 06:25:15;;;;;;;12.43;1.80;;;10.30;58.00;;;;;;5090299;28;20521;-72
2023/10/14 06:27:45;;;;;;;12.60;2.00;;;10.30;58.00;;;;;;5090049;28;20426;-71
2023/10/14 06:30:19;;;;;;;7.97;1.80;;;10.40;57.50;;;;;;5090068;28;20489;-72
2023/10/14 06:32:48;;;;;;;11.05;2.10;;;10.40;57.30;;;;;;5089205;28;20405;-72
2023/10/14 06:35:17;;;;;;;14.43;2.08;;;10.30;57.00;;;;;;5089748;28;20390;-71
2023/10/14 06:37:47;;;;;;;15.23;2.72;;;10.30;57.10;;;;;;5088498;28;20410;-72
2023/10/14 06:40:19;;;;;;;13.35;1.98;;;10.40;57.50;;;;;;5089830;28;20409;-72
2023/10/14 06:42:49;;;;;;;14.32;2.15;;;10.40;58.00;;;;;;5089739;28;20497;-72
2023/10/14 06:45:21;;;;;;;13.10;2.20;;;10.40;58.30;;;;;;5089521;28;20489;-72
2023/10/14 06:47:50;;;;;;;12.85;1.83;;;10.40;58.50;;;;;;5071077;28;20970;-72
2023/10/14 06:50:25;;;;;;;10.40;1.83;;;10.40;58.90;;;;;;5090079;28;20749;-71
2023/10/14 06:52:58;;;;;;;12.37;2.23;;;10.50;58.90;;;;;;5088429;28;20402;-71
2023/10/14 06:55:37;;;;;;;15.25;2.33;;;10.60;59.20;;;;;;5089017;28;20402;-72
2023/10/14 06:58:11;;;;;;;11.40;1.70;;;10.70;59.50;;;;;;5088411;28;20437;-72
2023/10/14 07:00:38;;;;;;;12.65;1.95;;;10.70;59.50;;;;;;5089011;28;20430;-72
2023/10/14 07:03:16;;;;;;;13.73;1.83;;;10.80;58.90;;;;;;5088970;28;20406;-72
2023/10/14 07:05:48;;;;;;;13.88;1.70;;;10.90;58.10;;;;;;5088776;28;20420;-72
2023/10/14 07:08:15;;;;;;;12.20;1.88;;;10.90;57.10;;;;;;5087880;28;20900;-71
2023/10/14 07:10:41;;;;;;;13.57;2.13;;;11.00;56.00;;;;;;5088058;28;20464;-71
2023/10/14 07:13:08;;;;;;;9.60;1.70;;;11.00;55.20;;;;;;5087655;28;20406;-72
2023/10/14 07:15:37;;;;;;;11.73;1.90;;;11.00;54.70;;;;;;5089110;28;20402;-72
2023/10/14 07:18:04;;;;;;;11.75;1.77;;;11.00;53.80;;;;;;5089103;28;20421;-72
2023/10/14 07:20:30;;;;;;;13.00;1.80;;;11.00;53.20;;;;;;5088490;28;20406;-73
2023/10/14 07:22:58;;;;;;;12.32;1.95;;;11.10;53.80;;;;;;5087363;28;20896;-72
2023/10/14 07:25:24;;;;;;;9.80;1.47;;;11.20;52.90;;;;;;5088812;28;20433;-72
2023/10/14 07:27:51;;;;;;;11.52;1.92;;;11.20;50.60;;;;;;5088293;28;20536;-72
2023/10/14 07:30:18;;;;;;;11.25;1.83;;;11.20;48.80;;;;;;5070603;28;20562;-72
2023/10/14 07:32:45;;;;;;;9.73;1.80;;;11.20;48.70;;;;;;5088346;28;20794;-73
2023/10/14 07:35:12;;;;;;;11.63;1.92;;;11.20;49.00;;;;;;5088761;28;20410;-71
2023/10/14 07:37:44;;;;;;;10.43;1.80;;;11.20;50.60;;;;;;5070314;28;20405;-72
2023/10/14 07:40:23;;;;;;;10.68;1.52;;;11.20;51.30;;;;;;5088479;28;20394;-72
2023/10/14 07:43:05;;;;;;;11.85;1.80;;;11.20;51.60;;;;;;5088137;28;20466;-72
2023/10/14 07:45:37;;;;;;;11.87;1.63;;;11.20;51.80;;;;;;5088330;28;20413;-72
2023/10/14 07:48:08;;;;;;;11.55;1.67;;;11.30;51.90;;;;;;5085823;28;20466;-72
2023/10/14 07:50:38;;;;;;;15.18;2.30;;;11.40;51.50;;;;;;5086995;28;20409;-72
2023/10/14 07:53:12;;;;;;;15.05;2.05;;;11.40;50.70;;;;;;5088426;28;20458;-72
2023/10/14 07:55:49;;;;;;;11.60;1.75;;;11.50;49.60;;;;;;5087451;28;20397;-72
2023/10/14 07:58:18;;;;;;;9.80;1.30;;;11.50;48.60;;;;;;5088525;28;20406;-73
2023/10/14 08:00:49;;;;;;;11.55;2.00;;;11.60;48.20;;;;;;5087844;28;20413;-72
2023/10/14 08:03:20;;;;;;;13.02;2.03;;;11.70;46.70;;;;;;5088601;28;20406;-72
2023/10/14 08:05:53;;;;;;;10.73;1.75;;;11.70;45.50;;;;;;5099339;28;20806;-72
2023/10/14 08:08:23;;;;;;;11.70;1.90;;;11.90;44.90;;;;;;5079839;28;20405;-72
2023/10/14 08:10:50;;;;;;;11.67;1.73;;;12.00;44.00;;;;;;5076988;28;20444;-71
2023/10/14 08:13:21;;;;;;;10.80;1.70;;;12.10;40.90;;;;;;5088129;28;20481;-72
2023/10/14 08:15:54;;;;;;;12.43;1.77;;;12.10;41.30;;;;;;5087550;28;20413;-73
2023/10/14 08:18:23;;;;;;;12.35;1.83;;;12.20;41.50;;;;;;5086819;28;20413;-72
2023/10/14 08:20:49;;;;;;;9.27;1.33;;;12.20;40.60;;;;;;5069514;28;20839;-72
2023/10/14 08:23:15;;;;;;;13.15;2.15;;;12.30;41.20;;;;;;5086324;28;20949;-72
2023/10/14 08:25:44;;;;;;;9.02;1.50;;;12.30;40.80;;;;;;5088249;28;20402;-72
2023/10/14 08:28:10;;;;;;;15.38;2.40;;;12.40;38.50;;;;;;5074866;28;21306;-73
2023/10/14 08:30:47;;;;;;;12.00;1.85;;;12.40;32.20;;;;;;5080101;28;20398;-73
2023/10/14 08:33:18;;;;;;;11.15;1.58;;;12.50;29.50;;;;;;5087720;28;20402;-72
2023/10/14 08:35:45;;;;;;;9.48;1.23;;;12.50;27.80;;;;;;5087486;28;20899;-72
2023/10/14 08:38:17;;;;;;;11.70;1.40;;;12.60;25.70;;;;;;5076124;28;20719;-72
2023/10/14 08:40:49;;;;;;;8.18;1.60;;;12.70;27.10;;;;;;5087633;28;20402;-72
2023/10/14 08:43:21;;;;;;;11.15;1.40;;;12.80;20.90;;;;;;5076862;28;20410;-72
2023/10/14 08:45:47;;;;;;;10.18;1.75;;;13.00;22.40;;;;;;5087462;28;20406;-72
2023/10/14 08:48:15;;;;;;;10.35;1.88;;;13.10;23.10;;;;;;5088065;28;20400;-72
2023/10/14 08:50:41;;;;;;;13.23;1.70;;;13.00;18.10;;;;;;5087230;28;20409;-72
2023/10/14 08:53:15;;;;;;;11.48;1.70;;;12.90;20.20;;;;;;5087853;28;20404;-71
2023/10/14 08:55:44;;;;;;;7.17;1.47;;;12.90;24.90;;;;;;5087097;28;20459;-72
2023/10/14 08:58:13;;;;;;;13.55;1.88;;;13.00;31.90;;;;;;5086766;28;20406;-72
2023/10/14 09:00:40;;;;;;;8.48;1.25;;;13.60;36.70;;;;;;5068786;28;20406;-72
2023/10/14 09:03:09;;;;;;;9.32;1.42;;;14.60;37.00;;;;;;5087625;28;20401;-72
2023/10/14 09:05:44;;;;;;;10.18;1.60;;;15.60;18.20;;;;;;5086100;28;20410;-72
2023/10/14 09:08:20;;;;;;;6.90;1.00;;;16.40;3.80;;;;;;5086199;28;20463;-71
2023/10/14 09:10:46;;;;;;;8.07;1.17;;;17.00;1.00;;;;;;5085527;28;20410;-72
2023/10/14 09:13:19;;;;;;;7.38;1.25;;;17.60;1.00;;;;;;5087405;28;20398;-72
2023/10/14 09:15:44;;;;;;;7.32;1.20;;;18.10;1.00;;;;;;5087475;28;20475;-72
2023/10/14 09:18:14;;;;;;;8.83;1.20;;;18.30;1.00;;;;;;5087203;28;20406;-72
2023/10/14 09:20:41;;;;;;;9.57;1.20;;;18.60;1.00;;;;;;5085863;28;20421;-72
2023/10/14 09:23:19;;;;;;;7.37;1.47;;;18.90;1.00;;;;;;5086774;28;20467;-72
2023/10/14 09:25:46;;;;;;;6.57;1.27;;;19.00;1.00;;;;;;5085757;28;20412;-72
2023/10/14 09:28:16;;;;;;;7.85;1.40;;;19.10;1.00;;;;;;5087002;28;20938;-72
2023/10/14 09:30:49;;;;;;;8.17;1.20;;;19.30;1.00;;;;;;5087122;28;20526;-72
2023/10/14 09:33:19;;;;;;;6.27;0.90;;;19.50;1.00;;;;;;5086443;28;20398;-72
2023/10/14 09:35:50;;;;;;;7.00;0.90;;;18.90;99.90;;;;;;5088079;28;20398;-72
2023/10/14 09:38:23;;;;;;;9.23;1.20;;;18.10;99.90;;;;;;5090873;28;20922;-71
2023/10/14 09:40:53;;;;;;;8.40;1.50;;;16.80;99.90;;;;;;5089208;28;20402;-71
2023/10/14 09:43:23;;;;;;;7.50;1.35;;;15.70;1.00;;;;;;5090029;28;20414;-71
2023/10/14 09:45:56;;;;;;;8.55;1.25;;;14.90;1.00;;;;;;5072143;28;20445;-72
2023/10/14 09:48:24;;;;;;;7.20;1.30;;;14.60;1.00;;;;;;5091025;28;20398;-71
2023/10/14 09:50:50;;;;;;;7.40;0.90;;;15.40;1.00;;;;;;5090455;28;20406;-72
2023/10/14 09:53:18;;;;;;;10.38;1.60;;;16.40;1.00;;;;;;5090297;28;20426;-71
2023/10/14 09:55:44;;;;;;;8.77;1.35;;;17.30;1.00;;;;;;5090494;28;20455;-72
2023/10/14 09:58:14;;;;;;;8.70;1.43;;;18.20;1.00;;;;;;5090813;28;20485;-72
2023/10/14 10:00:40;;;;;;;6.83;1.33;;;18.70;99.90;;;;;;5072105;28;20907;-72
2023/10/14 10:03:08;;;;;;;9.68;1.33;;;19.30;99.90;;;;;;5080376;28;20399;-72
2023/10/14 10:05:44;;;;;;;10.43;1.40;;;19.60;99.90;;;;;;5089573;28;20399;-72
2023/10/14 10:08:17;;;;;;;8.87;1.30;;;19.20;99.90;;;;;;5090271;28;20461;-72
2023/10/14 10:10:47;;;;;;;4.20;0.77;;;18.70;99.90;;;;;;5088693;28;20927;-72
2023/10/14 10:13:14;;;;;;;3.40;0.40;;;18.50;76.50;;;;;;5090305;28;20437;-72
2023/10/14 10:15:40;;;;;;;4.25;0.60;;;18.50;1.00;;;;;;5089076;28;20401;-72
2023/10/14 10:18:12;;;;;;;6.03;0.63;;;18.90;30.30;;;;;;5088901;28;20756;-72
2023/10/14 10:20:47;;;;;;;2.90;0.40;;;19.20;99.90;;;;;;5088696;28;20413;-71
2023/10/14 10:23:14;;;;;;;3.77;0.60;;;19.70;99.90;;;;;;5089365;28;20397;-72
2023/10/14 10:25:47;;;;;;;4.75;0.60;;;20.00;44.80;;;;;;5080911;28;20938;-72
2023/10/14 10:28:27;;;;;;;4.90;0.73;;;20.30;99.90;;;;;;5089817;28;20402;-71
2023/10/14 10:30:55;;;;;;;4.25;0.60;;;20.50;99.90;;;;;;5089678;28;20398;-72
2023/10/14 10:33:23;;;;;;;6.38;1.00;;;20.30;1.00;;;;;;5089760;28;20407;-72
2023/10/14 10:35:58;;;;;;;5.13;0.97;;;20.20;63.40;;;;;;5089164;28;20913;-71
2023/10/14 10:38:27;;;;;;;6.40;1.00;;;19.90;99.90;;;;;;5078668;28;20394;-71
2023/10/14 10:41:16;;;;;;;6.57;1.10;;;19.60;1.00;;;;;;5089320;28;20430;-72
2023/10/14 10:43:46;;;;;;;5.13;1.35;;;19.90;99.90;;;;;;5089663;28;20402;-72
2023/10/14 10:46:30;;;;;;;5.70;1.00;;;20.60;1.00;;;;;;5087510;28;20521;-74
2023/10/14 10:48:56;;;;;;;8.05;1.13;;;21.40;1.00;;;;;;5089250;28;20422;-72
2023/10/14 10:51:23;;;;;;;8.02;1.10;;;21.90;1.00;;;;;;5088064;28;20490;-72
2023/10/14 10:53:49;;;;;;;7.22;1.33;;;22.10;1.00;;;;;;5088610;28;20409;-72
2023/10/14 10:56:21;;;;;;;6.90;1.35;;;22.30;29.00;;;;;;5089421;28;20435;-72
2023/10/14 10:58:47;;;;;;;6.47;1.02;;;22.40;1.00;;;;;;5089080;28;20421;-71
2023/10/14 11:01:14;;;;;;;7.73;1.00;;;22.10;99.90;;;;;;5089163;28;20402;-72
2023/10/14 11:03:42;;;;;;;7.72;1.10;;;21.80;99.90;;;;;;5076627;28;20943;-71
2023/10/14 11:06:13;;;;;;;8.43;1.13;;;21.50;1.00;;;;;;5087598;28;20529;-71
2023/10/14 11:08:39;;;;;;;6.13;1.20;;;21.30;99.90;;;;;;5089192;28;20402;-72
2023/10/14 11:11:07;;;;;;;10.02;1.60;;;21.30;99.90;;;;;;5089246;28;20410;-72
2023/10/14 11:13:36;;;;;;;8.77;1.20;;;20.80;99.90;;;;;;5089124;28;20394;-72
2023/10/14 11:16:14;;;;;;;8.63;1.30;;;19.70;99.90;;;;;;5090481;28;20937;-75
2023/10/14 11:18:48;;;;;;;8.35;1.55;;;18.40;26.80;;;;;;5118788;27;20824;-72
2023/10/14 11:21:16;;;;;;;7.38;1.60;;;17.30;99.90;;;;;;5091333;28;20414;-71
2023/10/14 11:23:43;;;;;;;8.55;1.55;;;16.60;99.90;;;;;;5088981;28;20493;-72
2023/10/14 11:26:15;;;;;;;12.07;2.05;;;16.80;99.90;;;;;;5088330;28;20644;-72
2023/10/14 11:28:48;;;;;;;8.25;1.83;;;17.80;99.90;;;;;;5088590;28;20411;-71
2023/10/14 11:31:14;;;;;;;9.05;1.40;;;18.70;99.90;;;;;;5083535;28;20436;-72
2023/10/14 11:33:47;;;;;;;7.70;1.58;;;19.30;99.90;;;;;;5087511;28;20930;-72
2023/10/14 11:36:18;;;;;;;9.43;2.00;;;19.90;99.90;;;;;;5084289;28;20413;-72
2023/10/14 11:38:46;;;;;;;9.07;1.70;;;20.30;99.90;;;;;;5082636;28;20409;-71
2023/10/14 11:41:13;;;;;;;9.48;1.80;;;20.00;1.00;;;;;;5086780;28;20410;-71
2023/10/14 11:43:45;;;;;;;8.65;1.50;;;20.00;1.00;;;;;;5087569;28;20410;-71
2023/10/14 11:46:12;;;;;;;13.63;1.90;;;19.50;99.90;;;;;;5086616;28;20425;-71
2023/10/14 11:48:38;;;;;;;10.00;1.70;;;18.80;1.00;;;;;;5082283;28;21008;-71
2023/10/14 11:51:11;;;;;;;11.32;1.83;;;17.90;1.00;;;;;;5084767;28;20405;-71
2023/10/14 11:53:43;;;;;;;8.07;1.70;;;18.10;1.00;;;;;;5083485;28;20409;-71
2023/10/14 11:56:13;;;;;;;7.03;1.20;;;18.70;99.90;;;;;;5076781;28;20410;-72
2023/10/14 11:58:40;;;;;;;7.43;1.63;;;19.40;99.90;;;;;;5085906;28;20413;-71
2023/10/14 12:01:06;;;;;;;7.73;1.10;;;19.80;82.40;;;;;;5086373;28;20409;-71
2023/10/14 12:03:32;;;;;;;5.15;1.00;;;19.90;99.90;;;;;;5084885;28;20406;-71
2023/10/14 12:05:59;;;;;;;8.90;1.50;;;19.90;35.10;;;;;;5086623;28;21082;-71
2023/10/14 12:08:30;;;;;;;9.45;1.52;;;20.10;1.00;;;;;;5086513;28;20851;-71
2023/10/14 12:10:59;;;;;;;8.27;1.70;;;20.30;99.90;;;;;;5084979;28;20414;-72
2023/10/14 12:13:28;;;;;;;8.95;1.88;;;20.60;99.90;;;;;;5085437;28;20414;-71
2023/10/14 12:15:54;;;;;;;8.25;1.00;;;20.80;99.90;;;;;;5080794;28;20441;-71
2023/10/14 12:18:20;;;;;;;6.95;1.42;;;20.80;46.50;;;;;;5086054;28;20417;-71
2023/10/14 12:20:48;;;;;;;7.13;1.45;;;20.70;1.00;;;;;;5087974;28;20760;-71
2023/10/14 12:23:18;;;;;;;7.32;1.25;;;20.60;99.90;;;;;;5085381;28;20401;-71
2023/10/14 12:25:48;;;;;;;7.63;1.33;;;20.80;99.90;;;;;;5092191;28;20414;-72
2023/10/14 12:28:25;;;;;;;7.00;1.23;;;21.10;99.90;;;;;;5094523;28;20934;-71
2023/10/14 12:30:51;;;;;;;8.37;1.30;;;20.90;99.90;;;;;;5087479;28;20892;-71
2023/10/14 12:33:20;;;;;;;6.82;1.42;;;20.80;99.90;;;;;;5087459;28;20410;-71
2023/10/14 12:35:51;;;;;;;7.53;1.42;;;20.90;99.90;;;;;;5087417;28;20404;-71
2023/10/14 12:38:30;;;;;;;5.57;1.20;;;21.00;99.90;;;;;;5087479;28;20402;-71
2023/10/14 12:40:55;;;;;;;8.45;1.60;;;21.00;99.90;;;;;;5088777;28;20406;-73
2023/10/14 12:43:28;;;;;;;9.45;1.80;;;21.10;99.90;;;;;;5093967;28;20416;-72
2023/10/14 12:48:43;;;;;;;7.37;1.63;;;21.50;99.90;;;;;;5088281;28;20915;-72
2023/10/14 12:51:25;;;;;;;7.38;1.63;;;21.40;99.90;;;;;;5090341;28;20398;-72
2023/10/14 12:53:52;;;;;;;8.67;1.40;;;21.50;99.90;;;;;;5090577;28;20390;-72
2023/10/14 12:56:20;;;;;;;8.77;1.60;;;21.50;99.90;;;;;;5087944;28;20395;-72
2023/10/14 12:58:48;;;;;;;9.33;1.60;;;21.60;99.90;;;;;;5087592;28;20422;-72
2023/10/14 13:01:17;;;;;;;7.60;1.75;;;21.60;99.90;;;;;;5088066;28;20418;-72
2023/10/14 13:03:46;;;;;;;9.23;1.67;;;21.40;82.50;;;;;;5086686;28;20418;-77
2023/10/14 13:06:13;;;;;;;7.50;1.90;;;21.40;99.90;;;;;;5092653;28;20470;-73
2023/10/14 13:08:39;;;;;;;9.45;1.67;;;21.60;99.90;;;;;;5094220;28;20398;-72
2023/10/14 13:11:05;;;;;;;10.07;1.60;;;21.80;99.90;;;;;;5088855;28;20922;-72
2023/10/14 13:13:30;;;;;;;8.73;1.80;;;21.60;96.30;;;;;;5092220;28;20414;-73
2023/10/14 13:15:56;;;;;;;6.97;1.20;;;21.50;93.30;;;;;;5091780;28;20410;-72
2023/10/14 13:18:24;;;;;;;10.60;1.90;;;21.30;64.10;;;;;;5089781;28;20938;-72
2023/10/14 13:20:50;;;;;;;5.80;1.23;;;20.50;8.30;;;;;;5090521;28;20784;-72
2023/10/14 13:23:16;;;;;;;5.80;1.20;;;19.40;1.00;;;;;;5090642;28;20510;-72
2023/10/14 13:25:41;;;;;;;4.38;1.13;;;18.60;5.80;;;;;;5090941;28;20434;-72
2023/10/14 13:28:09;;;;;;;7.17;1.40;;;18.10;99.90;;;;;;5090516;28;20514;-72
2023/10/14 13:30:36;;;;;;;7.47;1.20;;;17.60;99.90;;;;;;5100285;28;20552;-72
2023/10/14 13:33:02;;;;;;;7.88;1.27;;;17.10;99.90;;;;;;5091031;28;20487;-72